Tihoreck, Russia
Current Conditions -  °F | °C
As of 2:30 PM on Monday 20 Oct 2014 (Local Time) from URKK Reporting Station
Clear Clear  
Wind Chill: 52°   Ceiling: Unl
Heat Index: 52°   Visibility: 6mi
Dew Point: 36°   Wind: 9mph
Humidity: 54%   Direction: 280°W
Pressure: 30.15"   Gusts: 16mph
Location:  45.85°N, 40.13°E
Report Text: URKK 201130Z 28004G07MPS CAVOK 11/02 Q1021 NOSIG RMK QFE762SC070
Loading
Personal Weather Stations






























Interactive Weather Map
Tropical Storm Tracking
New forecast layout! Learn more

10-Day Weather Forecast

Advertisements
Track Severe Weather on mobile